createdAt,value
2022-09-04T00:02:09.816Z,100244.31
2022-09-04T00:04:47.439Z,100244.31
2022-09-04T00:07:23.098Z,100245.16
2022-09-04T00:10:02.863Z,100250.72
2022-09-04T00:12:36.636Z,100254.31
2022-09-04T00:15:14.750Z,100255.19
2022-09-04T00:17:49.563Z,100260.53
2022-09-04T00:20:26.873Z,100263.00
2022-09-04T00:23:01.140Z,100261.16
2022-09-04T00:25:36.495Z,100266.28
2022-09-04T00:28:13.170Z,100267.91
2022-09-04T00:30:50.383Z,100258.84
2022-09-04T00:33:23.688Z,100262.06
2022-09-04T00:35:57.535Z,100264.50
2022-09-04T00:38:35.488Z,100267.06
2022-09-04T00:41:11.964Z,100270.72
2022-09-04T00:44:14.497Z,100266.22
2022-09-04T00:47:05.222Z,100261.84
2022-09-04T00:49:57.543Z,100267.19
2022-09-04T00:52:46.921Z,100264.63
2022-09-04T00:55:27.671Z,100275.31
2022-09-04T00:58:07.118Z,100277.25
2022-09-04T01:00:36.712Z,100274.66
2022-09-04T01:03:27.476Z,100280.00
2022-09-04T01:06:13.802Z,100268.69
2022-09-04T01:08:56.351Z,100273.13
2022-09-04T01:11:34.018Z,100276.78
2022-09-04T01:14:13.410Z,100275.91
2022-09-04T01:16:48.341Z,100284.03
2022-09-04T01:19:32.689Z,100284.97
2022-09-04T01:22:14.931Z,100288.75
2022-09-04T01:25:03.625Z,100290.75
2022-09-04T01:27:40.463Z,100293.53
2022-09-04T01:30:11.881Z,100295.31
2022-09-04T01:32:48.798Z,100301.53
2022-09-04T01:35:26.999Z,100294.38
2022-09-04T01:38:04.649Z,100289.97
2022-09-04T01:40:40.766Z,100293.63
2022-09-04T01:43:14.626Z,100299.91
2022-09-04T01:45:52.936Z,100297.47
2022-09-04T01:48:26.227Z,100307.38
2022-09-04T01:51:01.611Z,100309.28
2022-09-04T01:53:32.986Z,100299.78
2022-09-04T01:56:11.318Z,100312.34
2022-09-04T01:58:47.759Z,100310.84
2022-09-04T02:01:22.898Z,100304.00
2022-09-04T02:03:57.361Z,100312.94
2022-09-04T02:06:34.876Z,100312.31
2022-09-04T02:09:22.190Z,100331.09
2022-09-04T02:11:57.230Z,100324.31
2022-09-04T02:14:37.587Z,100327.28
2022-09-04T02:17:12.708Z,100332.81
2022-09-04T02:20:00.618Z,100337.59
2022-09-04T02:22:37.118Z,100344.91
2022-09-04T02:25:09.909Z,100330.94
2022-09-04T02:27:45.676Z,100341.78
2022-09-04T02:30:20.643Z,100341.97
2022-09-04T02:32:56.746Z,100350.94
2022-09-04T02:35:32.156Z,100341.41
2022-09-04T02:38:09.490Z,100346.00
2022-09-04T02:40:45.718Z,100348.84
2022-09-04T02:43:35.761Z,100350.66
2022-09-04T02:46:11.945Z,100348.09
2022-09-04T02:48:49.954Z,100350.75
2022-09-04T02:51:29.836Z,100356.19
2022-09-04T02:54:04.760Z,100354.56
2022-09-04T02:56:43.747Z,100353.81
2022-09-04T02:59:37.827Z,100365.53
2022-09-04T03:02:18.553Z,100360.34
2022-09-04T03:04:54.111Z,100355.19
2022-09-04T03:07:28.495Z,100352.72
2022-09-04T03:10:03.358Z,100357.28
2022-09-04T03:12:38.327Z,100364.72
2022-09-04T03:15:16.180Z,100355.09
2022-09-04T03:17:53.500Z,100359.75
2022-09-04T03:20:25.673Z,100359.06
2022-09-04T03:23:00.586Z,100361.81
2022-09-04T03:25:48.455Z,100356.59
2022-09-04T03:28:23.046Z,100363.94
2022-09-04T03:30:54.556Z,100359.63
2022-09-04T03:33:30.163Z,100359.75
2022-09-04T03:36:03.495Z,100360.69
2022-09-04T03:38:39.207Z,100358.13
2022-09-04T03:41:18.210Z,100361.63
2022-09-04T03:44:00.753Z,100357.22
2022-09-04T03:46:40.948Z,100366.00
2022-09-04T03:49:19.912Z,100367.63
2022-09-04T03:52:00.215Z,100375.44
2022-09-04T03:54:42.465Z,100376.13
2022-09-04T03:57:24.923Z,100376.13
2022-09-04T04:00:04.685Z,100376.88
2022-09-04T04:02:59.832Z,100379.34
2022-09-04T04:05:41.347Z,100374.88
2022-09-04T04:08:28.447Z,100387.25
2022-09-04T04:11:03.275Z,100380.97
2022-09-04T04:13:43.650Z,100386.19
2022-09-04T04:16:27.741Z,100385.25
2022-09-04T04:19:01.622Z,100396.00
2022-09-04T04:21:55.589Z,100392.56
2022-09-04T04:24:39.269Z,100392.56
2022-09-04T04:27:23.582Z,100393.63
2022-09-04T04:29:56.392Z,100394.56
2022-09-04T04:32:38.699Z,100394.69
2022-09-04T04:35:16.487Z,100400.16
2022-09-04T04:37:59.405Z,100405.50
2022-09-04T04:40:43.363Z,100411.69
2022-09-04T04:43:16.923Z,100417.88
2022-09-04T04:45:55.354Z,100414.28
2022-09-04T04:49:04.370Z,100408.00
2022-09-04T04:52:15.933Z,100420.19
2022-09-04T04:54:57.119Z,100423.59
2022-09-04T04:57:35.562Z,100426.06
2022-09-04T05:00:11.739Z,100433.13
2022-09-04T05:02:51.961Z,100424.19
2022-09-04T05:05:41.929Z,100432.00
2022-09-04T05:08:17.846Z,100438.13
2022-09-04T05:10:51.310Z,100439.84
2022-09-04T05:13:27.246Z,100439.63
2022-09-04T05:16:09.365Z,100446.53
2022-09-04T05:18:46.119Z,100448.06
2022-09-04T05:21:20.389Z,100453.97
2022-09-04T05:23:54.855Z,100451.97
2022-09-04T05:26:32.754Z,100460.66
2022-09-04T05:29:05.877Z,100473.69
2022-09-04T05:31:43.165Z,100472.56
2022-09-04T05:34:17.247Z,100474.97
2022-09-04T05:36:49.665Z,100480.69
2022-09-04T05:39:27.835Z,100483.06
2022-09-04T05:42:35.280Z,100494.97
2022-09-04T05:45:10.196Z,100485.84
2022-09-04T05:47:46.562Z,100490.78
2022-09-04T05:50:37.574Z,100491.16
2022-09-04T05:53:30.701Z,100503.94
2022-09-04T05:56:28.282Z,100497.25
2022-09-04T05:59:10.156Z,100498.56
2022-09-04T06:01:59.458Z,100501.72
2022-09-04T06:04:44.818Z,100507.41
2022-09-04T06:07:17.449Z,100513.25
2022-09-04T06:10:00.693Z,100518.97
2022-09-04T06:12:44.630Z,100519.22
2022-09-04T06:15:25.645Z,100520.47
2022-09-04T06:18:05.396Z,100521.66
2022-09-04T06:20:42.836Z,100522.78
2022-09-04T06:23:29.767Z,100528.94
2022-09-04T06:26:31.747Z,100530.69
2022-09-04T06:29:08.383Z,100534.88
2022-09-04T06:32:10.352Z,100538.19
2022-09-04T06:34:54.986Z,100532.38
2022-09-04T06:37:33.145Z,100535.63
2022-09-04T06:40:13.895Z,100532.19
2022-09-04T06:42:53.080Z,100527.75
2022-09-04T06:45:28.053Z,100532.09
2022-09-04T06:48:06.338Z,100539.34
2022-09-04T06:50:47.251Z,100538.84
2022-09-04T06:53:36.086Z,100528.81
2022-09-04T06:56:14.159Z,100532.31
2022-09-04T06:59:02.660Z,100540.31
2022-09-04T07:01:40.598Z,100544.81
2022-09-04T07:04:18.937Z,100544.41
2022-09-04T07:07:04.307Z,100539.59
2022-09-04T07:09:37.429Z,100541.19
2022-09-04T07:12:29.956Z,100546.88
2022-09-04T07:15:19.220Z,100540.41
2022-09-04T07:18:01.496Z,100552.03
2022-09-04T07:20:37.238Z,100546.44
2022-09-04T07:23:27.662Z,100545.69
2022-09-04T07:26:05.623Z,100544.88
2022-09-04T07:28:44.526Z,100547.84
2022-09-04T07:31:18.269Z,100553.13
2022-09-04T07:33:54.868Z,100555.38
2022-09-04T07:36:32.961Z,100563.44
2022-09-04T07:39:12.360Z,100562.25
2022-09-04T07:41:49.305Z,100560.59
2022-09-04T07:44:26.627Z,100572.38
2022-09-04T07:47:01.387Z,100575.25
2022-09-04T07:49:35.389Z,100575.59
2022-09-04T07:52:11.691Z,100571.66
2022-09-04T07:54:54.692Z,100572.72
2022-09-04T07:57:34.873Z,100571.41
2022-09-04T08:00:08.661Z,100580.94
2022-09-04T08:03:02.894Z,100586.00
2022-09-04T08:05:34.319Z,100588.09
2022-09-04T08:08:35.593Z,100576.66
2022-09-04T08:11:38.066Z,100580.13
2022-09-04T08:14:22.573Z,100579.34
2022-09-04T08:17:00.121Z,100582.00
2022-09-04T08:19:43.039Z,100584.88
2022-09-04T08:22:13.750Z,100590.22
2022-09-04T08:25:00.988Z,100592.28
2022-09-04T08:27:44.875Z,100593.56
2022-09-04T08:30:18.717Z,100592.25
2022-09-04T08:33:03.083Z,100589.34
2022-09-04T08:35:35.856Z,100588.16
2022-09-04T08:38:15.712Z,100582.78
2022-09-04T08:41:15.606Z,100587.69
2022-09-04T08:44:14.139Z,100592.41
2022-09-04T08:47:04.391Z,100598.38
2022-09-04T08:49:56.041Z,100606.03
2022-09-04T08:52:46.345Z,100603.84
2022-09-04T08:55:39.155Z,100604.44
2022-09-04T08:58:24.690Z,100609.66
2022-09-04T09:01:23.751Z,100612.81
2022-09-04T09:04:11.963Z,100608.41
2022-09-04T09:07:10.011Z,100604.31
2022-09-04T09:10:02.947Z,100610.19
2022-09-04T09:13:23.470Z,100611.09
2022-09-04T09:16:09.368Z,100620.75
2022-09-04T09:18:41.502Z,100614.25
2022-09-04T09:21:23.721Z,100611.13
2022-09-04T09:24:22.842Z,100614.75
2022-09-04T09:27:02.385Z,100615.53
2022-09-04T09:29:46.572Z,100608.88
2022-09-04T09:32:46.012Z,100611.72
2022-09-04T09:35:26.380Z,100603.06
2022-09-04T09:38:20.010Z,100601.78
2022-09-04T09:41:20.115Z,100604.63
2022-09-04T09:44:09.305Z,100601.34
2022-09-04T09:46:59.326Z,100611.22
2022-09-04T09:50:01.911Z,100603.75
2022-09-04T09:53:00.510Z,100598.22
2022-09-04T09:56:08.619Z,100597.53
2022-09-04T09:59:13.957Z,100598.72
2022-09-04T10:02:16.529Z,100591.31
2022-09-04T10:05:13.611Z,100601.72
2022-09-04T10:08:10.599Z,100604.16
2022-09-04T10:11:01.966Z,100596.22
2022-09-04T10:13:55.631Z,100600.38
2022-09-04T10:16:39.353Z,100599.97
2022-09-04T10:19:28.945Z,100599.50
2022-09-04T10:22:17.366Z,100604.28
2022-09-04T10:25:16.311Z,100611.91
2022-09-04T10:27:57.703Z,100611.69
2022-09-04T10:30:27.792Z,100608.44
2022-09-04T10:33:26.560Z,100596.63
2022-09-04T10:36:16.300Z,100595.41
2022-09-04T10:39:03.472Z,100593.13
2022-09-04T10:41:53.646Z,100599.91
2022-09-04T10:44:47.956Z,100608.56
2022-09-04T10:47:28.100Z,100605.19
2022-09-04T10:50:15.509Z,100601.84
2022-09-04T10:53:03.830Z,100603.69
2022-09-04T10:55:39.087Z,100599.53
2022-09-04T10:58:39.892Z,100593.59
2022-09-04T11:01:36.939Z,100603.63
2022-09-04T11:04:27.213Z,100602.28
2022-09-04T11:07:28.865Z,100602.09
2022-09-04T11:10:30.974Z,100600.34
2022-09-04T11:13:29.776Z,100605.44
2022-09-04T11:16:35.896Z,100603.38
2022-09-04T11:19:26.556Z,100595.53
2022-09-04T11:22:20.470Z,100602.25
2022-09-04T11:25:19.957Z,100596.91
2022-09-04T11:28:33.822Z,100589.94
2022-09-04T11:31:16.091Z,100592.94
2022-09-04T11:34:06.455Z,100589.88
2022-09-04T11:36:52.606Z,100597.84
2022-09-04T11:39:43.701Z,100595.72
2022-09-04T11:42:31.069Z,100602.78
2022-09-04T11:45:34.691Z,100598.88
2022-09-04T11:48:24.395Z,100590.69
2022-09-04T11:51:16.530Z,100588.44
2022-09-04T11:54:01.672Z,100589.59
2022-09-04T11:56:49.550Z,100596.41
2022-09-04T11:59:39.399Z,100589.25
2022-09-04T12:02:35.091Z,100598.25
2022-09-04T12:05:24.840Z,100592.19
2022-09-04T12:08:07.839Z,100601.91
2022-09-04T12:10:50.166Z,100595.78
2022-09-04T12:13:44.927Z,100593.94
2022-09-04T12:16:28.890Z,100595.16
2022-09-04T12:19:33.272Z,100598.34
2022-09-04T12:22:17.419Z,100591.72
2022-09-04T12:25:03.784Z,100598.50
2022-09-04T12:27:56.063Z,100600.22
2022-09-04T12:30:26.354Z,100598.84
2022-09-04T12:33:25.052Z,100594.38
2022-09-04T12:36:29.921Z,100595.06
2022-09-04T12:39:17.783Z,100599.63
2022-09-04T12:41:54.478Z,100598.16
2022-09-04T12:44:33.126Z,100604.47
2022-09-04T12:47:14.092Z,100600.22
2022-09-04T12:50:01.890Z,100604.69
2022-09-04T12:52:41.328Z,100590.38
2022-09-04T12:55:19.350Z,100600.91
2022-09-04T12:58:00.875Z,100594.44
2022-09-04T13:00:48.594Z,100596.09
2022-09-04T13:03:26.461Z,100599.13
2022-09-04T13:06:04.550Z,100596.41
2022-09-04T13:08:45.627Z,100602.34
2022-09-04T13:11:27.815Z,100598.28
2022-09-04T13:14:07.620Z,100604.94
2022-09-04T13:16:43.167Z,100599.84
2022-09-04T13:19:20.016Z,100612.66
2022-09-04T13:22:08.989Z,100612.50
2022-09-04T13:24:51.285Z,100612.66
2022-09-04T13:27:36.499Z,100617.94
2022-09-04T13:30:09.556Z,100613.00
2022-09-04T13:33:02.830Z,100612.81
2022-09-04T13:35:42.668Z,100615.88
2022-09-04T13:38:40.396Z,100615.53
2022-09-04T13:41:30.511Z,100612.94
2022-09-04T13:44:45.720Z,100615.81
2022-09-04T13:47:21.014Z,100619.19
2022-09-04T13:49:56.670Z,100619.72
2022-09-04T13:52:30.553Z,100616.13
2022-09-04T13:55:04.683Z,100625.34
2022-09-04T13:57:39.020Z,100626.81
2022-09-04T14:00:12.106Z,100625.66
2022-09-04T14:02:44.848Z,100625.66
2022-09-04T14:05:16.504Z,100633.50
2022-09-04T14:07:49.238Z,100630.59
2022-09-04T14:10:22.339Z,100626.16
2022-09-04T14:13:04.975Z,100624.81
2022-09-04T14:15:51.589Z,100626.00
2022-09-04T14:18:45.356Z,100622.91
2022-09-04T14:21:19.973Z,100623.41
2022-09-04T14:23:54.370Z,100619.50
2022-09-04T14:26:31.623Z,100623.56
2022-09-04T14:29:07.031Z,100624.06
2022-09-04T14:31:46.872Z,100619.94
2022-09-04T14:34:28.928Z,100621.16
2022-09-04T14:37:08.224Z,100618.47
2022-09-04T14:39:40.910Z,100617.13
2022-09-04T14:42:33.571Z,100612.88
2022-09-04T14:45:14.494Z,100623.63
2022-09-04T14:47:47.410Z,100615.81
2022-09-04T14:50:20.496Z,100616.34
2022-09-04T14:52:52.281Z,100619.09
2022-09-04T14:55:27.654Z,100615.03
2022-09-04T14:58:02.046Z,100619.81
2022-09-04T15:00:34.132Z,100611.97
2022-09-04T15:03:09.297Z,100610.81
2022-09-04T15:05:51.560Z,100621.88
2022-09-04T15:08:34.644Z,100611.72
2022-09-04T15:11:08.991Z,100613.56
2022-09-04T15:13:50.773Z,100617.16
2022-09-04T15:16:28.607Z,100614.56
2022-09-04T15:19:03.623Z,100615.09
2022-09-04T15:21:41.619Z,100604.72
2022-09-04T15:24:26.551Z,100613.91
2022-09-04T15:27:01.486Z,100600.47
2022-09-04T15:29:35.951Z,100602.69
2022-09-04T15:32:09.430Z,100607.47
2022-09-04T15:34:44.112Z,100604.19
2022-09-04T15:37:22.207Z,100599.28
2022-09-04T15:39:58.217Z,100605.41
2022-09-04T15:42:37.532Z,100601.50
2022-09-04T15:45:13.239Z,100597.78
2022-09-04T15:47:53.310Z,100601.00
2022-09-04T15:50:24.794Z,100604.41
2022-09-04T15:53:02.595Z,100592.50
2022-09-04T15:55:34.457Z,100599.28
2022-09-04T15:58:08.618Z,100602.34
2022-09-04T16:00:41.444Z,100600.66
2022-09-04T16:03:15.781Z,100597.78
2022-09-04T16:05:47.567Z,100604.72
2022-09-04T16:08:25.170Z,100602.66
2022-09-04T16:11:01.605Z,100592.44
2022-09-04T16:13:38.741Z,100594.13
2022-09-04T16:16:13.727Z,100599.03
2022-09-04T16:18:52.283Z,100599.91
2022-09-04T16:21:32.173Z,100599.00
2022-09-04T16:24:09.184Z,100591.53
2022-09-04T16:26:40.137Z,100597.63
2022-09-04T16:29:17.467Z,100597.94
2022-09-04T16:31:54.395Z,100596.41
2022-09-04T16:34:26.120Z,100595.91
2022-09-04T16:37:01.995Z,100599.09
2022-09-04T16:39:47.654Z,100591.28
2022-09-04T16:42:23.626Z,100594.31
2022-09-04T16:44:56.426Z,100592.78
2022-09-04T16:47:31.652Z,100602.75
2022-09-04T16:50:13.423Z,100604.63
2022-09-04T16:52:48.308Z,100598.50
2022-09-04T16:55:31.339Z,100610.56
2022-09-04T16:58:15.516Z,100601.72
2022-09-04T17:01:13.728Z,100595.09
2022-09-04T17:04:04.125Z,100595.59
2022-09-04T17:06:47.802Z,100596.22
2022-09-04T17:09:23.493Z,100600.25
2022-09-04T17:11:58.204Z,100597.19
2022-09-04T17:14:33.849Z,100599.69
2022-09-04T17:17:29.863Z,100598.47
2022-09-04T17:20:04.377Z,100594.38
2022-09-04T17:29:02.240Z,100601.28
2022-09-04T17:29:17.547Z,100598.81
2022-09-04T17:29:17.549Z,100599.06
2022-09-04T17:31:45.684Z,100600.44
2022-09-04T17:40:32.087Z,100591.41
2022-09-04T17:40:37.324Z,100593.34
2022-09-04T17:40:49.878Z,100599.03
2022-09-04T17:43:23.422Z,100588.75
2022-09-04T17:46:04.605Z,100590.69
2022-09-04T17:48:35.442Z,100591.88
2022-09-04T17:51:07.352Z,100593.81
2022-09-04T17:53:39.539Z,100592.31
2022-09-04T17:56:14.730Z,100595.41
2022-09-04T17:58:46.649Z,100598.31
2022-09-04T18:01:23.009Z,100594.28
2022-09-04T18:04:20.330Z,100602.53
2022-09-04T18:06:55.877Z,100601.16
2022-09-04T18:09:29.744Z,100597.66
2022-09-04T18:12:11.145Z,100605.09
2022-09-04T18:14:45.357Z,100608.09
2022-09-04T18:17:23.637Z,100615.66
2022-09-04T18:19:55.343Z,100617.50
2022-09-04T18:22:33.511Z,100624.63
2022-09-04T18:25:15.974Z,100623.06
2022-09-04T18:28:06.226Z,100629.44
2022-09-04T18:37:11.211Z,100633.13
2022-09-04T18:37:24.340Z,100640.03
2022-09-04T18:37:26.041Z,100641.63
2022-09-04T18:39:40.646Z,100642.81
2022-09-04T18:48:37.568Z,100649.03
2022-09-04T18:50:38.909Z,100649.69
2022-09-04T18:50:48.707Z,100652.56
2022-09-04T18:51:19.322Z,100658.47
2022-09-04T18:53:54.268Z,100663.69
2022-09-04T18:56:27.046Z,100664.34
2022-09-04T18:59:01.018Z,100674.81
2022-09-04T19:01:37.453Z,100670.22
2022-09-04T19:04:31.980Z,100677.97
2022-09-04T19:07:08.320Z,100681.19
2022-09-04T19:10:03.780Z,100676.91
2022-09-04T19:12:46.842Z,100679.25
2022-09-04T19:15:36.722Z,100681.75
2022-09-04T19:18:11.279Z,100677.88
2022-09-04T19:20:47.536Z,100678.38
2022-09-04T19:23:25.716Z,100674.78
2022-09-04T19:25:57.010Z,100679.09
2022-09-04T19:28:28.861Z,100676.31
2022-09-04T19:31:01.481Z,100683.31
2022-09-04T19:33:39.066Z,100688.47
2022-09-04T19:36:13.511Z,100681.00
2022-09-04T19:45:56.529Z,100674.91
2022-09-04T19:46:12.707Z,100678.13
2022-09-04T19:47:30.927Z,100686.66
2022-09-04T19:53:17.802Z,100686.19
2022-09-04T19:53:31.899Z,100689.50
2022-09-04T19:56:04.138Z,100684.72
2022-09-04T19:58:40.119Z,100690.63
2022-09-04T20:01:17.610Z,100691.09
2022-09-04T20:03:52.817Z,100697.56
2022-09-04T20:06:25.282Z,100689.00
2022-09-04T20:08:59.253Z,100695.50
2022-09-04T20:11:36.516Z,100700.13
2022-09-04T20:14:15.043Z,100700.50
2022-09-04T20:16:57.021Z,100699.75
2022-09-04T20:19:28.928Z,100700.72
2022-09-04T20:22:02.905Z,100705.25
2022-09-04T20:24:36.403Z,100699.16
2022-09-04T20:27:15.861Z,100699.38
2022-09-04T20:29:54.488Z,100704.75
2022-09-04T20:32:28.505Z,100696.91
2022-09-04T20:35:13.169Z,100714.00
2022-09-04T20:37:48.780Z,100707.03
2022-09-04T20:40:35.364Z,100704.47
2022-09-04T20:43:19.947Z,100710.94
2022-09-04T20:49:53.753Z,100715.56
2022-09-04T20:52:42.762Z,100708.59
2022-09-04T20:52:59.018Z,100709.81
2022-09-04T20:54:56.047Z,100718.97
2022-09-04T21:02:12.870Z,100712.13
2022-09-04T21:03:23.853Z,100713.22
2022-09-04T21:03:29.399Z,100720.31
2022-09-04T21:06:10.697Z,100709.78
2022-09-04T21:08:48.438Z,100710.75
2022-09-04T21:11:39.655Z,100721.50
2022-09-04T21:14:15.941Z,100721.00
2022-09-04T21:17:34.948Z,100715.75
2022-09-04T21:21:00.023Z,100723.16
2022-09-04T21:23:46.382Z,100713.88
2022-09-04T21:26:30.233Z,100726.91
2022-09-04T21:29:35.694Z,100718.34
2022-09-04T21:32:32.040Z,100723.94
2022-09-04T21:35:09.365Z,100732.13
2022-09-04T21:37:44.744Z,100722.34
2022-09-04T21:40:50.761Z,100720.53
2022-09-04T21:43:48.981Z,100725.25
2022-09-04T21:46:29.379Z,100722.69
2022-09-04T21:49:19.655Z,100728.06
2022-09-04T21:52:10.643Z,100738.06
2022-09-04T21:57:28.803Z,100725.50
2022-09-04T22:02:42.616Z,100736.44
2022-09-04T22:02:43.254Z,100731.72
2022-09-04T22:04:28.915Z,100731.44
2022-09-04T22:10:15.529Z,100729.72
2022-09-04T22:13:31.305Z,100729.94
2022-09-04T22:13:40.554Z,100732.00
2022-09-04T22:16:02.464Z,100728.56
2022-09-04T22:18:43.171Z,100726.97
2022-09-04T22:21:25.753Z,100730.69
2022-09-04T22:24:18.565Z,100728.25
2022-09-04T22:27:18.327Z,100722.03
2022-09-04T22:29:52.901Z,100728.97
2022-09-04T22:33:07.139Z,100724.16
2022-09-04T22:35:58.678Z,100735.31
2022-09-04T22:38:54.570Z,100732.19
2022-09-04T22:41:37.762Z,100736.25
2022-09-04T22:44:18.235Z,100736.84
2022-09-04T22:47:31.200Z,100741.13
2022-09-04T22:50:48.755Z,100732.13
2022-09-04T22:53:47.332Z,100739.44
2022-09-04T22:56:24.818Z,100733.31
2022-09-04T22:59:25.756Z,100731.72
2022-09-04T23:02:18.520Z,100739.88
2022-09-04T23:05:01.235Z,100740.00
2022-09-04T23:13:48.231Z,100734.88
2022-09-04T23:13:52.085Z,100742.28
2022-09-04T23:14:06.532Z,100734.34
2022-09-04T23:16:49.403Z,100742.28
2022-09-04T23:26:28.296Z,100734.34
2022-09-04T23:26:45.678Z,100730.06
2022-09-04T23:26:49.804Z,100737.28
2022-09-04T23:29:41.198Z,100744.22
2022-09-04T23:32:32.231Z,100741.44
2022-09-04T23:35:15.769Z,100744.00
2022-09-04T23:38:15.397Z,100731.56
2022-09-04T23:40:47.101Z,100739.72
2022-09-04T23:43:55.267Z,100738.84
2022-09-04T23:46:54.616Z,100727.25
2022-09-04T23:49:53.532Z,100734.78
2022-09-04T23:52:29.321Z,100735.03
2022-09-04T23:55:25.404Z,100735.09
2022-09-04T23:57:58.606Z,100735.34
